createdAt,value
2023-10-01T00:00:22.510Z,14.40
2023-10-01T00:02:52.699Z,14.30
2023-10-01T00:05:23.159Z,14.30
2023-10-01T00:07:53.006Z,14.30
2023-10-01T00:10:21.877Z,14.30
2023-10-01T00:12:53.298Z,14.30
2023-10-01T00:15:23.033Z,14.30
2023-10-01T00:17:50.598Z,14.40
2023-10-01T00:20:24.637Z,14.10
2023-10-01T00:22:54.773Z,14.20
2023-10-01T00:25:23.893Z,14.30
2023-10-01T00:27:52.281Z,14.20
2023-10-01T00:30:22.979Z,14.20
2023-10-01T00:32:50.388Z,14.20
2023-10-01T00:35:20.411Z,14.30
2023-10-01T00:37:49.339Z,14.30
2023-10-01T00:40:21.087Z,14.10
2023-10-01T00:42:50.059Z,14.00
2023-10-01T00:45:21.954Z,14.00
2023-10-01T00:47:49.478Z,13.90
2023-10-01T00:50:18.024Z,13.90
2023-10-01T00:52:48.293Z,13.90
2023-10-01T00:55:17.277Z,13.90
2023-10-01T00:57:46.412Z,14.30
2023-10-01T01:00:17.329Z,13.60
2023-10-01T01:03:18.322Z,13.90
2023-10-01T01:06:05.385Z,13.90
2023-10-01T01:08:47.923Z,13.90
2023-10-01T01:11:18.609Z,13.50
2023-10-01T01:13:45.733Z,14.00
2023-10-01T01:16:20.739Z,13.70
2023-10-01T01:18:52.691Z,13.80
2023-10-01T01:21:20.076Z,13.70
2023-10-01T01:23:51.619Z,13.70
2023-10-01T01:26:22.327Z,13.80
2023-10-01T01:28:49.766Z,13.60
2023-10-01T01:31:17.418Z,13.40
2023-10-01T01:33:54.364Z,13.50
2023-10-01T01:36:21.454Z,13.70
2023-10-01T01:39:27.583Z,13.50
2023-10-01T01:41:55.707Z,13.80
2023-10-01T01:44:24.174Z,13.90
2023-10-01T01:46:51.361Z,13.50
2023-10-01T01:49:20.104Z,13.60
2023-10-01T01:52:05.164Z,13.70
2023-10-01T01:54:36.204Z,13.50
2023-10-01T01:59:40.644Z,13.40
2023-10-01T02:02:10.919Z,13.50
2023-10-01T02:05:00.083Z,13.30
2023-10-01T02:07:29.359Z,13.20
2023-10-01T02:09:56.845Z,14.00
2023-10-01T02:12:26.637Z,13.30
2023-10-01T02:14:56.129Z,13.30
2023-10-01T02:17:23.530Z,13.30
2023-10-01T02:19:50.935Z,13.30
2023-10-01T02:22:18.545Z,13.40
2023-10-01T02:24:45.698Z,13.30
2023-10-01T02:27:25.304Z,13.40
2023-10-01T02:32:58.727Z,13.40
2023-10-01T02:35:37.778Z,13.30
2023-10-01T02:38:30.946Z,13.30
2023-10-01T02:41:05.789Z,13.30
2023-10-01T02:43:42.329Z,13.20
2023-10-01T02:46:17.015Z,13.20
2023-10-01T02:48:45.251Z,13.10
2023-10-01T02:51:15.630Z,13.00
2023-10-01T02:54:07.581Z,14.00
2023-10-01T02:56:38.805Z,13.10
2023-10-01T02:59:14.456Z,13.10
2023-10-01T03:01:47.845Z,13.40
2023-10-01T03:04:18.930Z,13.20
2023-10-01T03:07:06.431Z,13.30
2023-10-01T03:09:40.831Z,13.20
2023-10-01T03:12:26.413Z,13.30
2023-10-01T03:15:18.367Z,12.90
2023-10-01T03:17:58.248Z,13.80
2023-10-01T03:20:39.701Z,13.40
2023-10-01T03:23:22.549Z,13.20
2023-10-01T03:26:08.730Z,13.50
2023-10-01T03:28:56.202Z,13.20
2023-10-01T03:31:26.858Z,13.20
2023-10-01T03:33:56.699Z,13.30
2023-10-01T03:36:33.897Z,13.10
2023-10-01T03:39:20.668Z,13.10
2023-10-01T03:42:06.281Z,13.00
2023-10-01T03:44:51.743Z,13.20
2023-10-01T03:47:20.554Z,13.40
2023-10-01T03:49:47.449Z,13.20
2023-10-01T03:52:16.066Z,13.70
2023-10-01T03:55:01.735Z,13.40
2023-10-01T03:57:51.373Z,13.40
2023-10-01T04:00:30.538Z,13.30
2023-10-01T04:02:59.591Z,13.30
2023-10-01T04:05:32.777Z,13.20
2023-10-01T04:08:04.503Z,13.20
2023-10-01T04:10:32.509Z,13.20
2023-10-01T04:13:13.326Z,13.50
2023-10-01T04:15:47.021Z,13.10
2023-10-01T04:18:16.925Z,13.40
2023-10-01T04:21:01.101Z,13.20
2023-10-01T04:23:33.396Z,13.20
2023-10-01T04:26:07.745Z,13.20
2023-10-01T04:28:38.918Z,13.20
2023-10-01T04:31:11.106Z,12.80
2023-10-01T04:33:38.643Z,13.30
2023-10-01T04:36:12.039Z,13.40
2023-10-01T04:38:42.570Z,13.30
2023-10-01T04:41:20.218Z,13.20
2023-10-01T04:43:53.743Z,13.20
2023-10-01T04:46:32.101Z,13.20
2023-10-01T04:49:15.496Z,13.10
2023-10-01T04:54:22.462Z,13.20
2023-10-01T04:56:52.897Z,13.00
2023-10-01T04:59:20.190Z,13.00
2023-10-01T05:01:48.631Z,13.10
2023-10-01T05:07:01.097Z,13.10
2023-10-01T05:09:29.526Z,13.80
2023-10-01T05:11:56.428Z,13.30
2023-10-01T05:14:24.187Z,13.30
2023-10-01T05:16:51.033Z,13.30
2023-10-01T05:19:19.991Z,13.40
2023-10-01T05:21:49.010Z,13.20
2023-10-01T05:24:32.482Z,13.20
2023-10-01T05:27:03.863Z,13.20
2023-10-01T05:29:32.363Z,13.00
2023-10-01T05:32:02.613Z,12.90
2023-10-01T05:34:33.156Z,13.70
2023-10-01T05:37:13.758Z,13.00
2023-10-01T05:42:35.890Z,13.00
2023-10-01T05:45:05.869Z,13.10
2023-10-01T05:47:52.639Z,13.70
2023-10-01T05:52:51.527Z,13.20
2023-10-01T05:55:21.062Z,13.20
2023-10-01T05:57:51.368Z,13.20
2023-10-01T06:00:27.374Z,13.10
2023-10-01T06:03:03.360Z,13.10
2023-10-01T06:05:34.529Z,13.10
2023-10-01T06:08:16.018Z,13.30
2023-10-01T06:11:06.237Z,13.60
2023-10-01T06:13:40.018Z,13.00
2023-10-01T06:16:17.329Z,12.90
2023-10-01T06:18:57.970Z,13.10
2023-10-01T06:21:32.546Z,13.10
2023-10-01T06:24:05.723Z,13.10
2023-10-01T06:26:51.771Z,13.10
2023-10-01T06:31:54.244Z,13.00
2023-10-01T06:34:27.651Z,13.20
2023-10-01T06:37:02.660Z,13.30
2023-10-01T06:39:37.025Z,13.50
2023-10-01T06:42:25.224Z,13.20
2023-10-01T06:44:54.327Z,12.60
2023-10-01T06:49:58.396Z,13.20
2023-10-01T06:52:34.059Z,13.50
2023-10-01T06:55:02.441Z,13.30
2023-10-01T06:57:34.270Z,13.50
2023-10-01T07:00:05.577Z,13.20
2023-10-01T07:05:13.970Z,13.30
2023-10-01T07:07:43.971Z,13.60
2023-10-01T07:10:16.128Z,13.80
2023-10-01T07:12:59.626Z,13.60
2023-10-01T07:15:27.340Z,13.70
2023-10-01T07:17:54.695Z,13.80
2023-10-01T07:20:26.348Z,13.70
2023-10-01T07:22:54.393Z,13.80
2023-10-01T07:25:44.617Z,14.00
2023-10-01T07:28:14.729Z,14.10
2023-10-01T07:30:53.446Z,14.00
2023-10-01T07:33:23.089Z,14.30
2023-10-01T07:36:03.307Z,14.30
2023-10-01T07:38:48.537Z,14.50
2023-10-01T07:41:23.841Z,14.70
2023-10-01T07:43:50.924Z,15.20
2023-10-01T07:46:19.901Z,15.40
2023-10-01T07:48:52.971Z,15.40
2023-10-01T07:51:27.780Z,16.00
2023-10-01T07:54:01.136Z,16.20
2023-10-01T07:56:28.998Z,16.40
2023-10-01T07:59:16.460Z,16.90
2023-10-01T08:02:00.669Z,16.90
2023-10-01T08:04:46.169Z,17.80
2023-10-01T08:07:24.029Z,17.40
2023-10-01T08:09:55.331Z,17.90
2023-10-01T08:12:41.338Z,17.70
2023-10-01T08:15:27.598Z,18.10
2023-10-01T08:17:56.130Z,18.10
2023-10-01T08:20:23.591Z,18.30
2023-10-01T08:25:52.398Z,18.80
2023-10-01T08:31:02.747Z,19.00
2023-10-01T08:33:43.371Z,19.20
2023-10-01T08:38:48.705Z,19.70
2023-10-01T08:44:13.174Z,20.40
2023-10-01T08:46:46.690Z,20.50
2023-10-01T08:49:25.723Z,20.30
2023-10-01T08:52:15.392Z,20.50
2023-10-01T08:54:49.977Z,20.70
2023-10-01T08:57:23.329Z,21.00
2023-10-01T09:02:24.283Z,21.10
2023-10-01T09:04:57.356Z,21.40
2023-10-01T09:07:47.937Z,21.40
2023-10-01T09:10:19.491Z,22.00
2023-10-01T09:12:49.456Z,21.60
2023-10-01T09:18:11.641Z,22.00
2023-10-01T09:20:40.755Z,22.30
2023-10-01T09:23:07.619Z,22.20
2023-10-01T09:28:20.902Z,23.10
2023-10-01T09:31:25.232Z,22.70
2023-10-01T09:33:52.726Z,23.00
2023-10-01T09:36:36.466Z,22.90
2023-10-01T09:39:08.065Z,23.00
2023-10-01T09:41:42.177Z,23.30
2023-10-01T09:44:10.458Z,23.50
2023-10-01T09:46:41.977Z,23.40
2023-10-01T09:49:10.176Z,23.50
2023-10-01T09:51:42.949Z,23.70
2023-10-01T09:54:20.380Z,23.50
2023-10-01T09:56:51.006Z,23.70
2023-10-01T09:59:20.480Z,23.90
2023-10-01T10:01:47.225Z,23.90
2023-10-01T10:04:21.389Z,23.90
2023-10-01T10:07:01.082Z,24.00
2023-10-01T10:09:32.526Z,24.10
2023-10-01T10:12:08.690Z,24.40
2023-10-01T10:14:36.025Z,24.30
2023-10-01T10:17:26.820Z,23.80
2023-10-01T10:20:39.331Z,23.90
2023-10-01T10:23:17.465Z,24.10
2023-10-01T10:25:45.529Z,23.80
2023-10-01T10:28:25.854Z,23.90
2023-10-01T10:31:36.534Z,23.40
2023-10-01T10:34:30.183Z,23.70
2023-10-01T10:37:00.105Z,23.60
2023-10-01T10:39:51.882Z,23.80
2023-10-01T10:42:31.243Z,23.60
2023-10-01T10:45:26.590Z,23.80
2023-10-01T10:48:00.014Z,23.80
2023-10-01T10:51:03.636Z,23.80
2023-10-01T10:53:41.234Z,23.60
2023-10-01T10:56:11.567Z,24.30
2023-10-01T10:58:42.555Z,24.10
2023-10-01T11:01:22.263Z,24.00
2023-10-01T11:03:58.032Z,24.00
2023-10-01T11:06:31.351Z,23.70
2023-10-01T11:09:04.348Z,23.90
2023-10-01T11:11:44.015Z,23.80
2023-10-01T11:14:19.066Z,24.00
2023-10-01T11:16:52.735Z,24.20
2023-10-01T11:19:26.632Z,23.80
2023-10-01T11:21:58.752Z,24.10
2023-10-01T11:24:40.704Z,24.10
2023-10-01T11:27:41.605Z,24.10
2023-10-01T11:30:21.827Z,24.00
2023-10-01T11:33:10.612Z,24.20
2023-10-01T11:36:09.255Z,24.30
2023-10-01T11:38:39.919Z,24.40
2023-10-01T11:41:09.437Z,24.10
2023-10-01T11:44:00.920Z,24.70
2023-10-01T11:46:55.923Z,24.40
2023-10-01T11:49:33.449Z,24.50
2023-10-01T11:52:22.739Z,24.70
2023-10-01T11:54:55.386Z,24.60
2023-10-01T11:57:24.387Z,24.70
2023-10-01T11:59:57.651Z,24.80
2023-10-01T12:02:26.590Z,24.90
2023-10-01T12:04:59.991Z,24.80
2023-10-01T12:07:44.715Z,24.70
2023-10-01T12:10:36.118Z,24.70
2023-10-01T12:13:03.945Z,24.90
2023-10-01T12:15:38.789Z,25.50
2023-10-01T12:18:10.039Z,25.00
2023-10-01T12:20:40.994Z,25.00
2023-10-01T12:23:15.089Z,25.10
2023-10-01T12:25:53.955Z,25.00
2023-10-01T12:28:25.621Z,24.80
2023-10-01T12:30:59.244Z,24.60
2023-10-01T12:33:39.924Z,24.70
2023-10-01T12:36:27.519Z,24.60
2023-10-01T12:41:55.426Z,24.60
2023-10-01T12:44:29.330Z,24.50
2023-10-01T12:47:03.887Z,24.60
2023-10-01T12:49:34.602Z,24.60
2023-10-01T12:52:05.489Z,24.90
2023-10-01T12:57:24.022Z,24.60
2023-10-01T13:00:10.700Z,25.20
2023-10-01T13:02:48.515Z,25.00
2023-10-01T13:05:18.038Z,24.40
2023-10-01T13:07:48.788Z,24.60
2023-10-01T13:10:17.781Z,24.40
2023-10-01T13:15:34.999Z,24.30
2023-10-01T13:18:12.870Z,24.40
2023-10-01T13:20:51.763Z,24.80
2023-10-01T13:23:25.458Z,24.30
2023-10-01T13:26:08.123Z,24.60
2023-10-01T13:28:48.946Z,24.40
2023-10-01T13:31:32.074Z,24.10
2023-10-01T13:34:21.586Z,24.00
2023-10-01T13:36:57.941Z,24.00
2023-10-01T13:39:45.606Z,24.00
2023-10-01T13:48:07.805Z,24.20
2023-10-01T13:50:55.442Z,23.90
2023-10-01T13:53:40.725Z,23.90
2023-10-01T13:56:28.700Z,24.10
2023-10-01T13:59:14.082Z,23.80
2023-10-01T14:01:59.557Z,23.40
2023-10-01T14:04:46.992Z,23.80
2023-10-01T14:07:32.522Z,23.60
2023-10-01T14:10:01.898Z,23.60
2023-10-01T14:15:24.763Z,23.20
2023-10-01T14:17:56.259Z,23.60
2023-10-01T14:20:39.846Z,23.40
2023-10-01T14:23:24.106Z,23.10
2023-10-01T14:26:12.873Z,23.30
2023-10-01T14:28:41.319Z,23.50
2023-10-01T14:31:08.258Z,23.70
2023-10-01T14:33:41.178Z,23.30
2023-10-01T14:36:15.400Z,23.40
2023-10-01T14:38:46.806Z,23.60
2023-10-01T14:41:19.308Z,23.10
2023-10-01T14:43:50.094Z,23.00
2023-10-01T14:46:20.915Z,23.10
2023-10-01T14:48:47.867Z,23.20
2023-10-01T14:51:17.054Z,22.80
2023-10-01T14:53:44.425Z,23.40
2023-10-01T14:56:12.403Z,22.80
2023-10-01T14:58:40.706Z,22.90
2023-10-01T15:01:09.883Z,23.30
2023-10-01T15:03:39.114Z,23.40
2023-10-01T15:06:07.540Z,23.10
2023-10-01T15:08:35.858Z,23.50
2023-10-01T15:11:21.911Z,22.90
2023-10-01T15:13:49.488Z,23.10
2023-10-01T15:16:29.541Z,23.00
2023-10-01T15:19:09.354Z,23.30
2023-10-01T15:21:40.196Z,23.10
2023-10-01T15:24:09.506Z,23.10
2023-10-01T15:26:44.578Z,23.50
2023-10-01T15:29:17.645Z,23.10
2023-10-01T15:31:46.328Z,23.40
2023-10-01T15:34:22.532Z,23.20
2023-10-01T15:36:50.415Z,23.00
2023-10-01T15:39:34.255Z,23.30
2023-10-01T15:42:24.111Z,22.60
2023-10-01T15:44:57.906Z,23.00
2023-10-01T15:47:34.785Z,23.00
2023-10-01T15:50:08.489Z,23.10
2023-10-01T15:52:47.818Z,22.70
2023-10-01T15:55:23.320Z,22.60
2023-10-01T15:57:56.048Z,23.30
2023-10-01T16:00:27.119Z,22.90
2023-10-01T16:03:12.948Z,23.00
2023-10-01T16:05:46.620Z,22.80
2023-10-01T16:08:21.617Z,23.10
2023-10-01T16:10:49.439Z,22.60
2023-10-01T16:13:28.445Z,22.40
2023-10-01T16:16:06.111Z,22.60
2023-10-01T16:18:35.225Z,22.60
2023-10-01T16:21:17.312Z,22.30
2023-10-01T16:23:50.292Z,22.60
2023-10-01T16:26:19.063Z,22.50
2023-10-01T16:28:49.107Z,22.60
2023-10-01T16:31:17.359Z,22.50
2023-10-01T16:33:46.766Z,22.10
2023-10-01T16:36:21.611Z,22.10
2023-10-01T16:38:52.345Z,22.00
2023-10-01T16:41:24.660Z,21.90
2023-10-01T16:43:58.410Z,21.70
2023-10-01T16:46:34.503Z,21.80
2023-10-01T16:49:08.220Z,21.50
2023-10-01T16:51:37.500Z,21.50
2023-10-01T16:54:18.300Z,21.80
2023-10-01T16:56:48.603Z,21.40
2023-10-01T16:59:16.914Z,21.20
2023-10-01T17:01:52.392Z,21.30
2023-10-01T17:06:51.839Z,21.40
2023-10-01T17:12:03.963Z,20.60
2023-10-01T17:14:33.107Z,20.40
2023-10-01T17:17:04.439Z,20.90
2023-10-01T17:19:35.314Z,20.70
2023-10-01T17:22:10.658Z,20.30
2023-10-01T17:24:45.249Z,20.40
2023-10-01T17:27:22.821Z,20.20
2023-10-01T17:29:54.237Z,19.90
2023-10-01T17:32:27.241Z,19.80
2023-10-01T17:34:57.934Z,20.00
2023-10-01T17:37:27.488Z,20.10
2023-10-01T17:40:02.357Z,20.00
2023-10-01T17:42:30.218Z,20.10
2023-10-01T17:44:58.098Z,19.90
2023-10-01T17:47:31.671Z,19.90
2023-10-01T17:50:00.479Z,19.60
2023-10-01T17:52:32.388Z,19.80
2023-10-01T17:55:01.750Z,19.70
2023-10-01T17:57:38.076Z,19.40
2023-10-01T18:00:32.700Z,19.40
2023-10-01T18:03:03.576Z,19.30
2023-10-01T18:08:08.167Z,19.50
2023-10-01T18:10:43.609Z,19.00
2023-10-01T18:13:16.619Z,19.30
2023-10-01T18:15:50.235Z,19.00
2023-10-01T18:21:03.546Z,19.00
2023-10-01T18:23:31.001Z,18.60
2023-10-01T18:25:59.398Z,18.40
2023-10-01T18:28:30.515Z,18.70
2023-10-01T18:31:01.589Z,18.60
2023-10-01T18:36:19.248Z,18.40
2023-10-01T18:38:49.724Z,18.30
2023-10-01T18:41:21.695Z,18.00
2023-10-01T18:43:49.157Z,18.40
2023-10-01T18:48:43.528Z,18.40
2023-10-01T18:51:14.707Z,18.40
2023-10-01T18:56:12.681Z,18.10
2023-10-01T18:58:42.715Z,18.00
2023-10-01T19:01:13.891Z,18.10
2023-10-01T19:06:19.560Z,17.70
2023-10-01T19:08:46.582Z,17.70
2023-10-01T19:11:15.706Z,17.30
2023-10-01T19:13:45.377Z,17.80
2023-10-01T19:18:39.616Z,17.60
2023-10-01T19:21:06.317Z,17.60
2023-10-01T19:23:33.665Z,17.70
2023-10-01T19:26:09.360Z,17.70
2023-10-01T19:33:41.908Z,17.60
2023-10-01T19:36:16.741Z,17.40
2023-10-01T19:38:48.532Z,17.30
2023-10-01T19:41:20.181Z,17.20
2023-10-01T19:43:50.126Z,17.10
2023-10-01T19:48:50.741Z,17.10
2023-10-01T19:51:23.980Z,17.00
2023-10-01T19:54:03.593Z,17.10
2023-10-01T19:56:32.825Z,16.90
2023-10-01T19:59:08.974Z,16.80
2023-10-01T20:01:39.488Z,16.90
2023-10-01T20:04:11.048Z,16.70
2023-10-01T20:06:45.810Z,16.90
2023-10-01T20:09:27.917Z,16.80
2023-10-01T20:11:59.051Z,16.80
2023-10-01T20:14:38.758Z,16.80
2023-10-01T20:22:20.592Z,16.50
2023-10-01T20:24:51.167Z,16.40
2023-10-01T20:27:23.269Z,16.60
2023-10-01T20:29:57.178Z,16.40
2023-10-01T20:34:54.530Z,16.60
2023-10-01T20:37:21.540Z,16.10
2023-10-01T20:39:50.532Z,16.10
2023-10-01T20:42:20.109Z,16.30
2023-10-01T20:44:51.161Z,16.20
2023-10-01T20:49:52.670Z,16.40
2023-10-01T20:52:22.635Z,16.00
2023-10-01T20:54:49.358Z,16.10
2023-10-01T20:57:19.708Z,16.20
2023-10-01T21:02:17.393Z,16.10
2023-10-01T21:04:44.203Z,15.60
2023-10-01T21:07:16.579Z,15.80
2023-10-01T21:09:48.435Z,16.00
2023-10-01T21:12:21.204Z,15.90
2023-10-01T21:14:50.030Z,15.90
2023-10-01T21:17:21.835Z,16.00
2023-10-01T21:20:13.691Z,15.90
2023-10-01T21:22:46.696Z,15.80
2023-10-01T21:25:27.781Z,15.70
2023-10-01T21:27:59.384Z,15.80
2023-10-01T21:30:29.206Z,15.80
2023-10-01T21:32:57.507Z,15.70
2023-10-01T21:35:25.634Z,15.80
2023-10-01T21:38:08.939Z,15.50
2023-10-01T21:40:38.442Z,15.40
2023-10-01T21:43:08.404Z,15.50
2023-10-01T21:45:40.941Z,15.50
2023-10-01T21:48:14.278Z,15.40
2023-10-01T21:50:43.541Z,15.50
2023-10-01T21:53:31.430Z,15.40
2023-10-01T21:56:05.352Z,15.60
2023-10-01T21:58:57.415Z,15.40
2023-10-01T22:01:45.436Z,15.60
2023-10-01T22:04:15.654Z,15.30
2023-10-01T22:06:53.148Z,15.40
2023-10-01T22:09:23.296Z,15.40
2023-10-01T22:11:54.687Z,15.50
2023-10-01T22:14:23.822Z,15.40
2023-10-01T22:16:54.165Z,15.40
2023-10-01T22:19:21.831Z,15.40
2023-10-01T22:21:58.735Z,15.20
2023-10-01T22:24:35.235Z,15.20
2023-10-01T22:27:04.342Z,15.00
2023-10-01T22:29:33.929Z,15.20
2023-10-01T22:32:04.210Z,15.20
2023-10-01T22:34:31.028Z,15.00
2023-10-01T22:36:59.580Z,15.20
2023-10-01T22:39:49.012Z,15.10
2023-10-01T22:42:24.929Z,15.20
2023-10-01T22:45:07.981Z,15.00
2023-10-01T22:47:41.977Z,15.10
2023-10-01T22:50:16.273Z,15.10
2023-10-01T22:52:45.860Z,15.40
2023-10-01T22:55:18.877Z,15.00
2023-10-01T22:57:47.858Z,14.80
2023-10-01T23:00:22.210Z,14.80
2023-10-01T23:03:01.923Z,14.80
2023-10-01T23:08:12.531Z,14.60
2023-10-01T23:10:41.416Z,14.70
2023-10-01T23:13:12.146Z,14.80
2023-10-01T23:15:48.845Z,14.70
2023-10-01T23:18:24.684Z,14.70
2023-10-01T23:20:54.086Z,14.70
2023-10-01T23:23:31.221Z,14.80
2023-10-01T23:26:27.673Z,14.90
2023-10-01T23:29:14.915Z,14.60
2023-10-01T23:31:51.932Z,14.70
2023-10-01T23:34:26.766Z,14.70
2023-10-01T23:37:09.102Z,14.70
2023-10-01T23:39:47.127Z,14.60
2023-10-01T23:47:29.248Z,14.50
2023-10-01T23:50:19.660Z,14.40
2023-10-01T23:52:55.767Z,14.40
2023-10-01T23:55:33.454Z,14.50
2023-10-01T23:58:13.840Z,14.40
